RKJK/KUV METAR and TAF weather

Enter ICAO airport designator
Station Type Date Time Source
RKJK METAR 2021/03/03 01:56 UTC NOAA

RKJK 030156Z 13006KT 6SM HZ FEW220 07/M00 A3042 RMK AO2A SLP306 T00651003 FZRANO $


Station Type Date Time Source
RKJK Decoded METAR 2021/03/03 01:56 UTC NOAA

Kunsan Ab, Korea, South (RKJK) 35-55N 126-37E 10M
Mar 02, 2021 - 08:56 PM EST / 2021.03.03 0156 UTC
Wind: from the SE (130 degrees) at 7 MPH (6 KT):0
Visibility: 6 mile(s):0
Sky conditions: mostly clear
Weather: haze
Temperature: 43.7 F (6.5 C)
Dew Point: 31.5 F (-0.3 C)
Relative Humidity: 61%
Pressure (altimeter): 30.42 in. Hg (1030 hPa)
ob: RKJK 030156Z 13006KT 6SM HZ FEW220 07/M00 A3042 RMK AO2A SLP306 T00651003 FZRANO
cycle: 2

Station Type Date Time Source
RKJK TAF 2021/03/03 00:03 UTC NOAA

TAF TAF RKJK 030000Z 0300/0406 12006KT 9000 HZ FEW180 QNH3037INS
BECMG 0306/0307 24006KT 9000 HZ SCT150 QNH3039INS
BECMG 0314/0315 14009KT 8000 BR SCT030 BKN140 QNH3037INS
BECMG 0400/0401 11006KT 9000 HZ SCT020 BKN120 QNH3037INS
BECMG 0405/0406 10006KT 6000 -RA BKN010 OVC020 620505 QNH3037INS TX09/0306Z TN01/0300Z

Example: see airport list